sensor_id;sensor_type;location;lat;lon;timestamp;temperature;humidity
17425;DHT22;8830;50.978;5.058;2022-07-12T00:01:44;17.90;99.90
17425;DHT22;8830;50.978;5.058;2022-07-12T00:04:11;17.80;99.90
17425;DHT22;8830;50.978;5.058;2022-07-12T00:06:38;17.70;99.90
17425;DHT22;8830;50.978;5.058;2022-07-12T00:09:05;17.70;99.90
17425;DHT22;8830;50.978;5.058;2022-07-12T00:11:33;17.70;99.90
17425;DHT22;8830;50.978;5.058;2022-07-12T00:14:01;17.70;99.90
17425;DHT22;8830;50.978;5.058;2022-07-12T00:16:29;17.70;99.90
17425;DHT22;8830;50.978;5.058;2022-07-12T00:18:57;17.60;99.90
17425;DHT22;8830;50.978;5.058;2022-07-12T00:21:24;17.50;99.90
17425;DHT22;8830;50.978;5.058;2022-07-12T00:23:51;17.40;99.90
17425;DHT22;8830;50.978;5.058;2022-07-12T00:26:19;17.40;99.90
17425;DHT22;8830;50.978;5.058;2022-07-12T00:28:46;17.40;99.90
17425;DHT22;8830;50.978;5.058;2022-07-12T00:31:14;17.40;99.90
17425;DHT22;8830;50.978;5.058;2022-07-12T00:33:42;17.30;99.90
17425;DHT22;8830;50.978;5.058;2022-07-12T00:36:10;17.30;99.90
17425;DHT22;8830;50.978;5.058;2022-07-12T00:38:37;17.30;99.90
17425;DHT22;8830;50.978;5.058;2022-07-12T00:41:04;17.20;99.90
17425;DHT22;8830;50.978;5.058;2022-07-12T00:43:31;17.20;99.90
17425;DHT22;8830;50.978;5.058;2022-07-12T00:45:58;17.10;99.90
17425;DHT22;8830;50.978;5.058;2022-07-12T00:48:25;17.10;99.90
17425;DHT22;8830;50.978;5.058;2022-07-12T00:50:53;17.10;99.90
17425;DHT22;8830;50.978;5.058;2022-07-12T00:53:20;17.00;99.90
17425;DHT22;8830;50.978;5.058;2022-07-12T00:55:52;17.00;99.90
17425;DHT22;8830;50.978;5.058;2022-07-12T00:58:21;17.10;99.90
17425;DHT22;8830;50.978;5.058;2022-07-12T01:00:49;17.10;99.90
17425;DHT22;8830;50.978;5.058;2022-07-12T01:03:16;17.00;99.90
17425;DHT22;8830;50.978;5.058;2022-07-12T01:05:44;17.00;99.90
17425;DHT22;8830;50.978;5.058;2022-07-12T01:08:13;17.00;99.90
17425;DHT22;8830;50.978;5.058;2022-07-12T01:10:43;16.80;99.90
17425;DHT22;8830;50.978;5.058;2022-07-12T01:13:11;16.70;99.90
17425;DHT22;8830;50.978;5.058;2022-07-12T01:15:38;16.70;99.90
17425;DHT22;8830;50.978;5.058;2022-07-12T01:18:07;16.70;99.90
17425;DHT22;8830;50.978;5.058;2022-07-12T01:20:34;16.60;99.90
17425;DHT22;8830;50.978;5.058;2022-07-12T01:23:03;16.60;99.90
17425;DHT22;8830;50.978;5.058;2022-07-12T01:25:30;16.50;99.90
17425;DHT22;8830;50.978;5.058;2022-07-12T01:27:57;16.50;99.90
17425;DHT22;8830;50.978;5.058;2022-07-12T01:30:24;16.50;99.90
17425;DHT22;8830;50.978;5.058;2022-07-12T01:32:51;16.60;99.90
17425;DHT22;8830;50.978;5.058;2022-07-12T01:35:18;16.60;99.90
17425;DHT22;8830;50.978;5.058;2022-07-12T01:37:47;16.60;99.90
17425;DHT22;8830;50.978;5.058;2022-07-12T01:40:16;16.50;99.90
17425;DHT22;8830;50.978;5.058;2022-07-12T01:42:43;16.50;99.90
17425;DHT22;8830;50.978;5.058;2022-07-12T01:45:11;16.50;99.90
17425;DHT22;8830;50.978;5.058;2022-07-12T01:47:38;16.40;99.90
17425;DHT22;8830;50.978;5.058;2022-07-12T01:50:06;16.50;99.90
17425;DHT22;8830;50.978;5.058;2022-07-12T01:52:34;16.40;99.90
17425;DHT22;8830;50.978;5.058;2022-07-12T01:55:02;16.50;99.90
17425;DHT22;8830;50.978;5.058;2022-07-12T01:57:31;16.40;99.90
17425;DHT22;8830;50.978;5.058;2022-07-12T02:00:00;16.40;99.90
17425;DHT22;8830;50.978;5.058;2022-07-12T02:02:28;16.40;99.90
17425;DHT22;8830;50.978;5.058;2022-07-12T02:04:57;16.30;99.90
17425;DHT22;8830;50.978;5.058;2022-07-12T02:07:25;16.20;99.90
17425;DHT22;8830;50.978;5.058;2022-07-12T02:09:52;16.10;99.90
17425;DHT22;8830;50.978;5.058;2022-07-12T02:12:19;16.10;99.90
17425;DHT22;8830;50.978;5.058;2022-07-12T02:14:48;16.20;99.90
17425;DHT22;8830;50.978;5.058;2022-07-12T02:17:15;16.10;99.90
17425;DHT22;8830;50.978;5.058;2022-07-12T02:19:42;16.10;99.90
17425;DHT22;8830;50.978;5.058;2022-07-12T02:22:09;16.10;99.90
17425;DHT22;8830;50.978;5.058;2022-07-12T02:24:36;16.10;99.90
17425;DHT22;8830;50.978;5.058;2022-07-12T02:27:04;16.00;99.90
17425;DHT22;8830;50.978;5.058;2022-07-12T02:29:31;16.00;99.90
17425;DHT22;8830;50.978;5.058;2022-07-12T02:32:01;15.90;99.90
17425;DHT22;8830;50.978;5.058;2022-07-12T02:34:28;15.90;99.90
17425;DHT22;8830;50.978;5.058;2022-07-12T02:36:55;15.90;99.90
17425;DHT22;8830;50.978;5.058;2022-07-12T02:39:22;15.80;99.90
17425;DHT22;8830;50.978;5.058;2022-07-12T02:41:49;15.80;99.90
17425;DHT22;8830;50.978;5.058;2022-07-12T02:44:16;15.80;99.90
17425;DHT22;8830;50.978;5.058;2022-07-12T02:46:43;15.80;99.90
17425;DHT22;8830;50.978;5.058;2022-07-12T02:49:11;15.80;99.90
17425;DHT22;8830;50.978;5.058;2022-07-12T02:51:39;15.80;99.90
17425;DHT22;8830;50.978;5.058;2022-07-12T02:54:06;15.80;99.90
17425;DHT22;8830;50.978;5.058;2022-07-12T02:56:32;15.70;99.90
17425;DHT22;8830;50.978;5.058;2022-07-12T02:58:59;15.70;99.90
17425;DHT22;8830;50.978;5.058;2022-07-12T03:01:26;15.70;99.90
17425;DHT22;8830;50.978;5.058;2022-07-12T03:03:53;15.60;99.90
17425;DHT22;8830;50.978;5.058;2022-07-12T03:06:21;15.60;99.90
17425;DHT22;8830;50.978;5.058;2022-07-12T03:08:48;15.60;99.90
17425;DHT22;8830;50.978;5.058;2022-07-12T03:11:15;15.60;99.90
17425;DHT22;8830;50.978;5.058;2022-07-12T03:13:42;15.60;99.90
17425;DHT22;8830;50.978;5.058;2022-07-12T03:16:09;15.50;99.90
17425;DHT22;8830;50.978;5.058;2022-07-12T03:18:37;15.50;99.90
17425;DHT22;8830;50.978;5.058;2022-07-12T03:21:05;15.50;99.90
17425;DHT22;8830;50.978;5.058;2022-07-12T03:23:33;15.50;99.90
17425;DHT22;8830;50.978;5.058;2022-07-12T03:26:00;15.50;99.90
17425;DHT22;8830;50.978;5.058;2022-07-12T03:28:27;15.60;99.90
17425;DHT22;8830;50.978;5.058;2022-07-12T03:30:54;15.60;99.90
17425;DHT22;8830;50.978;5.058;2022-07-12T03:33:21;15.70;99.90
17425;DHT22;8830;50.978;5.058;2022-07-12T03:35:48;15.60;99.90
17425;DHT22;8830;50.978;5.058;2022-07-12T03:38:15;15.70;99.90
17425;DHT22;8830;50.978;5.058;2022-07-12T03:40:43;15.70;99.90
17425;DHT22;8830;50.978;5.058;2022-07-12T03:43:10;15.70;99.90
17425;DHT22;8830;50.978;5.058;2022-07-12T03:45:40;15.60;99.90
17425;DHT22;8830;50.978;5.058;2022-07-12T03:48:08;15.60;99.90
17425;DHT22;8830;50.978;5.058;2022-07-12T03:50:35;15.70;99.90
17425;DHT22;8830;50.978;5.058;2022-07-12T03:53:02;15.70;99.90
17425;DHT22;8830;50.978;5.058;2022-07-12T03:55:29;15.70;99.90
17425;DHT22;8830;50.978;5.058;2022-07-12T03:57:58;15.70;99.90
17425;DHT22;8830;50.978;5.058;2022-07-12T04:00:25;15.70;99.90
17425;DHT22;8830;50.978;5.058;2022-07-12T04:02:52;15.60;99.90
17425;DHT22;8830;50.978;5.058;2022-07-12T04:05:20;15.70;99.90
17425;DHT22;8830;50.978;5.058;2022-07-12T04:07:51;15.70;99.90
17425;DHT22;8830;50.978;5.058;2022-07-12T04:10:18;15.70;99.90
17425;DHT22;8830;50.978;5.058;2022-07-12T04:12:45;15.80;99.90
17425;DHT22;8830;50.978;5.058;2022-07-12T04:15:14;15.80;99.90
17425;DHT22;8830;50.978;5.058;2022-07-12T04:17:41;15.80;99.90
17425;DHT22;8830;50.978;5.058;2022-07-12T04:20:09;15.80;99.90
17425;DHT22;8830;50.978;5.058;2022-07-12T04:22:36;15.80;99.90
17425;DHT22;8830;50.978;5.058;2022-07-12T04:25:04;15.90;99.90
17425;DHT22;8830;50.978;5.058;2022-07-12T04:27:31;15.90;99.90
17425;DHT22;8830;50.978;5.058;2022-07-12T04:29:58;16.00;99.90
17425;DHT22;8830;50.978;5.058;2022-07-12T04:32:26;15.80;99.90
17425;DHT22;8830;50.978;5.058;2022-07-12T04:34:53;15.90;99.90
17425;DHT22;8830;50.978;5.058;2022-07-12T04:39:47;16.00;99.90
17425;DHT22;8830;50.978;5.058;2022-07-12T04:42:14;16.10;99.90
17425;DHT22;8830;50.978;5.058;2022-07-12T04:44:41;16.40;99.90
17425;DHT22;8830;50.978;5.058;2022-07-12T04:47:08;16.30;99.90
17425;DHT22;8830;50.978;5.058;2022-07-12T04:49:37;16.50;99.90
17425;DHT22;8830;50.978;5.058;2022-07-12T04:52:05;16.90;99.90
17425;DHT22;8830;50.978;5.058;2022-07-12T04:54:32;17.00;99.90
17425;DHT22;8830;50.978;5.058;2022-07-12T04:56:59;18.60;99.90
17425;DHT22;8830;50.978;5.058;2022-07-12T04:59:25;20.40;99.90
17425;DHT22;8830;50.978;5.058;2022-07-12T05:01:52;22.30;99.90
17425;DHT22;8830;50.978;5.058;2022-07-12T05:04:19;23.50;99.90
17425;DHT22;8830;50.978;5.058;2022-07-12T05:06:48;24.40;99.90
17425;DHT22;8830;50.978;5.058;2022-07-12T05:09:14;24.80;99.90
17425;DHT22;8830;50.978;5.058;2022-07-12T05:11:41;25.40;99.90
17425;DHT22;8830;50.978;5.058;2022-07-12T05:14:09;25.80;99.90
17425;DHT22;8830;50.978;5.058;2022-07-12T05:16:36;25.90;99.90
17425;DHT22;8830;50.978;5.058;2022-07-12T05:19:03;26.10;99.90
17425;DHT22;8830;50.978;5.058;2022-07-12T05:21:30;26.70;99.90
17425;DHT22;8830;50.978;5.058;2022-07-12T05:24:01;27.00;99.90
17425;DHT22;8830;50.978;5.058;2022-07-12T05:26:28;26.50;99.90
17425;DHT22;8830;50.978;5.058;2022-07-12T05:28:55;25.80;99.90
17425;DHT22;8830;50.978;5.058;2022-07-12T05:31:22;26.40;99.90
17425;DHT22;8830;50.978;5.058;2022-07-12T05:33:49;26.30;99.90
17425;DHT22;8830;50.978;5.058;2022-07-12T05:36:16;26.30;99.90
17425;DHT22;8830;50.978;5.058;2022-07-12T05:38:43;26.40;99.90
17425;DHT22;8830;50.978;5.058;2022-07-12T05:41:11;26.90;99.90
17425;DHT22;8830;50.978;5.058;2022-07-12T05:43:38;26.50;99.90
17425;DHT22;8830;50.978;5.058;2022-07-12T05:46:05;25.50;99.90
17425;DHT22;8830;50.978;5.058;2022-07-12T05:48:34;26.10;99.90
17425;DHT22;8830;50.978;5.058;2022-07-12T05:51:00;26.10;99.90
17425;DHT22;8830;50.978;5.058;2022-07-12T05:53:41;26.50;99.90
17425;DHT22;8830;50.978;5.058;2022-07-12T05:56:08;27.20;99.90
17425;DHT22;8830;50.978;5.058;2022-07-12T05:58:36;27.60;99.90
17425;DHT22;8830;50.978;5.058;2022-07-12T06:01:03;27.70;99.90
17425;DHT22;8830;50.978;5.058;2022-07-12T06:03:31;27.70;99.90
17425;DHT22;8830;50.978;5.058;2022-07-12T06:05:58;28.60;99.90
17425;DHT22;8830;50.978;5.058;2022-07-12T06:08:25;28.50;99.90
17425;DHT22;8830;50.978;5.058;2022-07-12T06:10:53;27.70;99.90
17425;DHT22;8830;50.978;5.058;2022-07-12T06:13:20;27.00;99.90
17425;DHT22;8830;50.978;5.058;2022-07-12T06:15:48;26.70;99.90
17425;DHT22;8830;50.978;5.058;2022-07-12T06:18:15;27.00;99.90
17425;DHT22;8830;50.978;5.058;2022-07-12T06:20:42;27.50;99.90
17425;DHT22;8830;50.978;5.058;2022-07-12T06:23:09;27.50;99.90
17425;DHT22;8830;50.978;5.058;2022-07-12T06:25:36;26.90;99.90
17425;DHT22;8830;50.978;5.058;2022-07-12T06:28:04;26.30;99.90
17425;DHT22;8830;50.978;5.058;2022-07-12T06:30:31;25.60;99.90
17425;DHT22;8830;50.978;5.058;2022-07-12T06:32:59;26.30;99.90
17425;DHT22;8830;50.978;5.058;2022-07-12T06:35:26;27.30;99.90
17425;DHT22;8830;50.978;5.058;2022-07-12T06:37:54;29.30;99.90
17425;DHT22;8830;50.978;5.058;2022-07-12T06:40:21;29.30;99.90
17425;DHT22;8830;50.978;5.058;2022-07-12T06:42:49;29.70;99.90
17425;DHT22;8830;50.978;5.058;2022-07-12T06:47:43;29.50;99.90
17425;DHT22;8830;50.978;5.058;2022-07-12T06:50:12;29.00;99.90
17425;DHT22;8830;50.978;5.058;2022-07-12T06:52:39;28.60;99.90
17425;DHT22;8830;50.978;5.058;2022-07-12T06:55:07;28.40;99.90
17425;DHT22;8830;50.978;5.058;2022-07-12T06:57:34;28.10;99.90
17425;DHT22;8830;50.978;5.058;2022-07-12T07:00:03;28.70;99.90
17425;DHT22;8830;50.978;5.058;2022-07-12T07:02:31;29.30;99.90
17425;DHT22;8830;50.978;5.058;2022-07-12T07:04:58;29.30;99.90
17425;DHT22;8830;50.978;5.058;2022-07-12T07:07:26;28.90;99.90
17425;DHT22;8830;50.978;5.058;2022-07-12T07:09:53;28.70;99.90
17425;DHT22;8830;50.978;5.058;2022-07-12T07:12:20;29.30;99.90
17425;DHT22;8830;50.978;5.058;2022-07-12T07:14:47;28.80;99.90
17425;DHT22;8830;50.978;5.058;2022-07-12T07:17:14;28.70;99.90
17425;DHT22;8830;50.978;5.058;2022-07-12T07:19:42;27.90;99.90
17425;DHT22;8830;50.978;5.058;2022-07-12T07:22:10;28.50;99.90
17425;DHT22;8830;50.978;5.058;2022-07-12T07:24:39;28.60;99.90
17425;DHT22;8830;50.978;5.058;2022-07-12T07:27:06;29.20;99.90
17425;DHT22;8830;50.978;5.058;2022-07-12T07:29:33;30.20;99.90
17425;DHT22;8830;50.978;5.058;2022-07-12T07:32:18;30.90;99.90
17425;DHT22;8830;50.978;5.058;2022-07-12T07:34:45;32.70;99.90
17425;DHT22;8830;50.978;5.058;2022-07-12T07:37:12;32.70;99.90
17425;DHT22;8830;50.978;5.058;2022-07-12T07:39:41;31.90;99.90
17425;DHT22;8830;50.978;5.058;2022-07-12T07:42:08;31.50;99.90
17425;DHT22;8830;50.978;5.058;2022-07-12T07:44:35;32.00;99.90
17425;DHT22;8830;50.978;5.058;2022-07-12T07:47:03;32.10;99.90
17425;DHT22;8830;50.978;5.058;2022-07-12T07:49:30;32.00;99.90
17425;DHT22;8830;50.978;5.058;2022-07-12T07:51:56;31.70;99.90
17425;DHT22;8830;50.978;5.058;2022-07-12T07:54:24;32.10;99.90
17425;DHT22;8830;50.978;5.058;2022-07-12T07:56:52;33.00;99.90
17425;DHT22;8830;50.978;5.058;2022-07-12T07:59:19;32.10;99.90
17425;DHT22;8830;50.978;5.058;2022-07-12T08:01:46;32.10;99.90
17425;DHT22;8830;50.978;5.058;2022-07-12T08:04:19;32.80;99.90
17425;DHT22;8830;50.978;5.058;2022-07-12T08:06:46;32.80;99.90
17425;DHT22;8830;50.978;5.058;2022-07-12T08:09:13;33.30;99.90
17425;DHT22;8830;50.978;5.058;2022-07-12T08:11:41;33.80;99.90
17425;DHT22;8830;50.978;5.058;2022-07-12T08:14:09;33.80;99.90
17425;DHT22;8830;50.978;5.058;2022-07-12T08:16:36;33.80;99.90
17425;DHT22;8830;50.978;5.058;2022-07-12T08:19:04;33.70;99.90
17425;DHT22;8830;50.978;5.058;2022-07-12T08:21:31;33.10;99.90
17425;DHT22;8830;50.978;5.058;2022-07-12T08:23:58;33.70;99.90
17425;DHT22;8830;50.978;5.058;2022-07-12T08:26:25;33.40;99.90
17425;DHT22;8830;50.978;5.058;2022-07-12T08:28:52;32.50;99.90
17425;DHT22;8830;50.978;5.058;2022-07-12T08:31:20;32.30;99.90
17425;DHT22;8830;50.978;5.058;2022-07-12T08:33:47;34.20;99.90
17425;DHT22;8830;50.978;5.058;2022-07-12T08:36:14;34.20;99.90
17425;DHT22;8830;50.978;5.058;2022-07-12T08:38:42;34.20;99.50
17425;DHT22;8830;50.978;5.058;2022-07-12T08:41:11;33.70;99.20
17425;DHT22;8830;50.978;5.058;2022-07-12T08:43:39;32.10;99.90
17425;DHT22;8830;50.978;5.058;2022-07-12T08:46:07;31.50;99.90
17425;DHT22;8830;50.978;5.058;2022-07-12T08:48:36;31.70;99.90
17425;DHT22;8830;50.978;5.058;2022-07-12T08:51:05;31.80;99.90
17425;DHT22;8830;50.978;5.058;2022-07-12T08:53:33;32.40;99.90
17425;DHT22;8830;50.978;5.058;2022-07-12T08:56:00;32.80;99.90
17425;DHT22;8830;50.978;5.058;2022-07-12T08:58:27;32.90;99.90
17425;DHT22;8830;50.978;5.058;2022-07-12T09:00:54;32.40;99.90
17425;DHT22;8830;50.978;5.058;2022-07-12T09:03:21;32.10;99.90
17425;DHT22;8830;50.978;5.058;2022-07-12T09:05:51;31.90;99.90
17425;DHT22;8830;50.978;5.058;2022-07-12T09:08:23;32.20;99.90
17425;DHT22;8830;50.978;5.058;2022-07-12T09:10:53;32.80;99.90
17425;DHT22;8830;50.978;5.058;2022-07-12T09:13:20;32.30;99.70
17425;DHT22;8830;50.978;5.058;2022-07-12T09:15:47;32.20;99.90
17425;DHT22;8830;50.978;5.058;2022-07-12T09:18:14;31.40;99.90
17425;DHT22;8830;50.978;5.058;2022-07-12T09:20:51;31.80;99.90
17425;DHT22;8830;50.978;5.058;2022-07-12T09:23:18;31.10;99.90
17425;DHT22;8830;50.978;5.058;2022-07-12T09:25:46;31.20;99.90
17425;DHT22;8830;50.978;5.058;2022-07-12T09:28:15;32.00;99.90
17425;DHT22;8830;50.978;5.058;2022-07-12T09:30:47;31.50;99.90
17425;DHT22;8830;50.978;5.058;2022-07-12T09:33:17;31.00;99.90
17425;DHT22;8830;50.978;5.058;2022-07-12T09:36:04;31.00;99.90
17425;DHT22;8830;50.978;5.058;2022-07-12T09:38:35;31.00;99.90
17425;DHT22;8830;50.978;5.058;2022-07-12T09:41:03;31.10;99.90
17425;DHT22;8830;50.978;5.058;2022-07-12T09:43:30;31.00;99.90
17425;DHT22;8830;50.978;5.058;2022-07-12T09:45:58;30.70;99.90
17425;DHT22;8830;50.978;5.058;2022-07-12T09:48:26;30.30;99.90
17425;DHT22;8830;50.978;5.058;2022-07-12T09:50:55;29.80;99.90
17425;DHT22;8830;50.978;5.058;2022-07-12T09:53:28;29.80;99.90
17425;DHT22;8830;50.978;5.058;2022-07-12T09:55:56;29.90;99.90
17425;DHT22;8830;50.978;5.058;2022-07-12T09:58:27;29.90;99.90
17425;DHT22;8830;50.978;5.058;2022-07-12T10:00:54;29.30;99.90
17425;DHT22;8830;50.978;5.058;2022-07-12T10:03:22;29.10;99.90
17425;DHT22;8830;50.978;5.058;2022-07-12T10:05:51;28.70;99.90
17425;DHT22;8830;50.978;5.058;2022-07-12T10:08:20;28.60;99.90
17425;DHT22;8830;50.978;5.058;2022-07-12T10:10:49;28.70;99.90
17425;DHT22;8830;50.978;5.058;2022-07-12T10:13:18;28.90;99.90
17425;DHT22;8830;50.978;5.058;2022-07-12T10:15:47;28.80;99.90
17425;DHT22;8830;50.978;5.058;2022-07-12T10:18:18;28.90;99.90
17425;DHT22;8830;50.978;5.058;2022-07-12T10:20:46;28.70;99.90
17425;DHT22;8830;50.978;5.058;2022-07-12T10:23:33;28.60;99.90
17425;DHT22;8830;50.978;5.058;2022-07-12T10:26:27;28.50;99.90
17425;DHT22;8830;50.978;5.058;2022-07-12T10:29:04;28.80;99.90
17425;DHT22;8830;50.978;5.058;2022-07-12T10:31:34;28.90;99.90
17425;DHT22;8830;50.978;5.058;2022-07-12T10:34:13;28.90;99.90
17425;DHT22;8830;50.978;5.058;2022-07-12T10:37:08;28.60;99.90
17425;DHT22;8830;50.978;5.058;2022-07-12T10:39:37;29.10;99.90
17425;DHT22;8830;50.978;5.058;2022-07-12T10:42:23;29.00;99.90
17425;DHT22;8830;50.978;5.058;2022-07-12T10:44:50;29.10;99.90
17425;DHT22;8830;50.978;5.058;2022-07-12T10:47:17;29.30;99.90
17425;DHT22;8830;50.978;5.058;2022-07-12T10:49:47;29.40;99.90
17425;DHT22;8830;50.978;5.058;2022-07-12T10:52:23;29.50;99.90
17425;DHT22;8830;50.978;5.058;2022-07-12T10:55:17;29.60;99.90
17425;DHT22;8830;50.978;5.058;2022-07-12T10:57:47;29.70;99.90
17425;DHT22;8830;50.978;5.058;2022-07-12T11:00:16;29.30;99.90
17425;DHT22;8830;50.978;5.058;2022-07-12T11:02:47;29.20;99.90
17425;DHT22;8830;50.978;5.058;2022-07-12T11:05:14;29.00;99.90
17425;DHT22;8830;50.978;5.058;2022-07-12T11:07:44;29.60;99.90
17425;DHT22;8830;50.978;5.058;2022-07-12T11:10:12;29.60;99.90
17425;DHT22;8830;50.978;5.058;2022-07-12T11:12:40;29.50;99.90
17425;DHT22;8830;50.978;5.058;2022-07-12T11:15:09;29.60;99.90
17425;DHT22;8830;50.978;5.058;2022-07-12T11:17:36;29.80;99.90
17425;DHT22;8830;50.978;5.058;2022-07-12T11:20:09;29.80;99.90
17425;DHT22;8830;50.978;5.058;2022-07-12T11:22:37;29.50;99.90
17425;DHT22;8830;50.978;5.058;2022-07-12T11:25:07;29.60;99.90
17425;DHT22;8830;50.978;5.058;2022-07-12T11:27:35;30.30;99.90
17425;DHT22;8830;50.978;5.058;2022-07-12T11:30:04;30.30;99.90
17425;DHT22;8830;50.978;5.058;2022-07-12T11:32:37;30.30;99.90
17425;DHT22;8830;50.978;5.058;2022-07-12T11:35:17;29.90;99.90
17425;DHT22;8830;50.978;5.058;2022-07-12T11:37:48;29.60;99.90
17425;DHT22;8830;50.978;5.058;2022-07-12T11:40:21;29.50;99.90
17425;DHT22;8830;50.978;5.058;2022-07-12T11:42:55;29.30;99.90
17425;DHT22;8830;50.978;5.058;2022-07-12T11:45:24;29.30;99.90
17425;DHT22;8830;50.978;5.058;2022-07-12T11:47:52;29.80;99.90
17425;DHT22;8830;50.978;5.058;2022-07-12T11:50:20;29.80;99.90
17425;DHT22;8830;50.978;5.058;2022-07-12T11:52:47;29.70;99.90
17425;DHT22;8830;50.978;5.058;2022-07-12T11:55:13;29.80;99.90
17425;DHT22;8830;50.978;5.058;2022-07-12T11:57:42;30.00;99.90
17425;DHT22;8830;50.978;5.058;2022-07-12T12:00:19;30.00;99.90
17425;DHT22;8830;50.978;5.058;2022-07-12T12:02:52;30.00;99.90
17425;DHT22;8830;50.978;5.058;2022-07-12T12:05:20;29.90;99.90
17425;DHT22;8830;50.978;5.058;2022-07-12T12:07:47;29.90;99.90
17425;DHT22;8830;50.978;5.058;2022-07-12T12:10:15;30.40;99.40
17425;DHT22;8830;50.978;5.058;2022-07-12T12:12:44;30.40;99.90
17425;DHT22;8830;50.978;5.058;2022-07-12T12:15:13;30.80;99.90
17425;DHT22;8830;50.978;5.058;2022-07-12T12:17:45;31.70;98.40
17425;DHT22;8830;50.978;5.058;2022-07-12T12:20:16;31.80;98.80
17425;DHT22;8830;50.978;5.058;2022-07-12T12:22:45;30.70;98.30
17425;DHT22;8830;50.978;5.058;2022-07-12T12:25:13;30.20;98.50
17425;DHT22;8830;50.978;5.058;2022-07-12T12:27:42;30.20;98.80
17425;DHT22;8830;50.978;5.058;2022-07-12T12:30:10;30.40;98.20
17425;DHT22;8830;50.978;5.058;2022-07-12T12:32:48;30.40;97.00
17425;DHT22;8830;50.978;5.058;2022-07-12T12:35:17;30.50;97.40
17425;DHT22;8830;50.978;5.058;2022-07-12T12:37:56;30.30;98.20
17425;DHT22;8830;50.978;5.058;2022-07-12T12:40:24;30.40;97.70
17425;DHT22;8830;50.978;5.058;2022-07-12T12:43:04;30.20;97.70
17425;DHT22;8830;50.978;5.058;2022-07-12T12:45:32;30.60;97.90
17425;DHT22;8830;50.978;5.058;2022-07-12T12:48:01;31.10;97.40
17425;DHT22;8830;50.978;5.058;2022-07-12T12:50:40;31.20;96.50
17425;DHT22;8830;50.978;5.058;2022-07-12T12:53:09;31.10;95.70
17425;DHT22;8830;50.978;5.058;2022-07-12T12:55:37;31.50;96.10
17425;DHT22;8830;50.978;5.058;2022-07-12T12:58:04;31.80;96.80
17425;DHT22;8830;50.978;5.058;2022-07-12T13:00:31;32.10;96.80
17425;DHT22;8830;50.978;5.058;2022-07-12T13:02:58;32.30;96.30
17425;DHT22;8830;50.978;5.058;2022-07-12T13:05:27;32.20;96.70
17425;DHT22;8830;50.978;5.058;2022-07-12T13:07:56;31.70;96.90
17425;DHT22;8830;50.978;5.058;2022-07-12T13:10:23;31.90;96.90
17425;DHT22;8830;50.978;5.058;2022-07-12T13:12:50;31.80;96.80
17425;DHT22;8830;50.978;5.058;2022-07-12T13:17:45;31.40;95.60
17425;DHT22;8830;50.978;5.058;2022-07-12T13:20:13;31.60;95.40
17425;DHT22;8830;50.978;5.058;2022-07-12T13:22:41;31.70;95.70
17425;DHT22;8830;50.978;5.058;2022-07-12T13:25:10;31.80;95.60
17425;DHT22;8830;50.978;5.058;2022-07-12T13:27:38;31.90;95.80
17425;DHT22;8830;50.978;5.058;2022-07-12T13:30:07;31.90;95.00
17425;DHT22;8830;50.978;5.058;2022-07-12T13:32:35;31.60;95.00
17425;DHT22;8830;50.978;5.058;2022-07-12T13:35:02;31.20;95.40
17425;DHT22;8830;50.978;5.058;2022-07-12T13:37:30;31.40;95.20
17425;DHT22;8830;50.978;5.058;2022-07-12T13:39:57;31.40;95.10
17425;DHT22;8830;50.978;5.058;2022-07-12T13:42:46;31.30;94.40
17425;DHT22;8830;50.978;5.058;2022-07-12T13:45:15;31.10;94.30
17425;DHT22;8830;50.978;5.058;2022-07-12T13:47:44;31.00;94.50
17425;DHT22;8830;50.978;5.058;2022-07-12T13:50:13;31.00;94.50
17425;DHT22;8830;50.978;5.058;2022-07-12T13:52:40;30.90;94.60
17425;DHT22;8830;50.978;5.058;2022-07-12T13:55:09;30.90;94.80
17425;DHT22;8830;50.978;5.058;2022-07-12T13:57:36;30.90;95.40
17425;DHT22;8830;50.978;5.058;2022-07-12T14:00:07;31.40;94.30
17425;DHT22;8830;50.978;5.058;2022-07-12T14:02:37;31.70;94.40
17425;DHT22;8830;50.978;5.058;2022-07-12T14:05:07;31.70;94.60
17425;DHT22;8830;50.978;5.058;2022-07-12T14:07:34;31.70;94.00
17425;DHT22;8830;50.978;5.058;2022-07-12T14:10:01;31.40;94.00
17425;DHT22;8830;50.978;5.058;2022-07-12T14:14:55;31.60;93.80
17425;DHT22;8830;50.978;5.058;2022-07-12T14:17:47;31.60;93.70
17425;DHT22;8830;50.978;5.058;2022-07-12T14:20:17;31.60;94.00
17425;DHT22;8830;50.978;5.058;2022-07-12T14:22:45;31.90;93.50
17425;DHT22;8830;50.978;5.058;2022-07-12T14:25:12;31.50;93.60
17425;DHT22;8830;50.978;5.058;2022-07-12T14:27:40;31.50;93.90
17425;DHT22;8830;50.978;5.058;2022-07-12T14:30:09;31.50;94.10
17425;DHT22;8830;50.978;5.058;2022-07-12T14:32:37;31.30;93.60
17425;DHT22;8830;50.978;5.058;2022-07-12T14:35:07;31.30;93.90
17425;DHT22;8830;50.978;5.058;2022-07-12T14:37:34;31.60;93.40
17425;DHT22;8830;50.978;5.058;2022-07-12T14:40:02;31.60;93.70
17425;DHT22;8830;50.978;5.058;2022-07-12T14:42:30;31.70;93.00
17425;DHT22;8830;50.978;5.058;2022-07-12T14:44:57;31.50;92.90
17425;DHT22;8830;50.978;5.058;2022-07-12T14:47:24;31.50;93.00
17425;DHT22;8830;50.978;5.058;2022-07-12T14:49:51;31.20;93.10
17425;DHT22;8830;50.978;5.058;2022-07-12T14:52:21;31.20;93.30
17425;DHT22;8830;50.978;5.058;2022-07-12T14:54:48;31.30;93.50
17425;DHT22;8830;50.978;5.058;2022-07-12T14:57:16;31.00;93.20
17425;DHT22;8830;50.978;5.058;2022-07-12T14:59:43;31.20;93.70
17425;DHT22;8830;50.978;5.058;2022-07-12T15:02:10;31.40;93.70
17425;DHT22;8830;50.978;5.058;2022-07-12T15:04:37;31.40;93.80
17425;DHT22;8830;50.978;5.058;2022-07-12T15:07:04;31.20;93.80
17425;DHT22;8830;50.978;5.058;2022-07-12T15:09:33;31.10;93.80
17425;DHT22;8830;50.978;5.058;2022-07-12T15:12:00;31.40;93.80
17425;DHT22;8830;50.978;5.058;2022-07-12T15:14:27;31.60;94.00
17425;DHT22;8830;50.978;5.058;2022-07-12T15:16:54;31.60;94.30
17425;DHT22;8830;50.978;5.058;2022-07-12T15:19:21;31.50;93.30
17425;DHT22;8830;50.978;5.058;2022-07-12T15:21:48;31.70;92.90
17425;DHT22;8830;50.978;5.058;2022-07-12T15:24:15;31.70;93.20
17425;DHT22;8830;50.978;5.058;2022-07-12T15:26:43;31.90;93.20
17425;DHT22;8830;50.978;5.058;2022-07-12T15:29:10;32.10;92.90
17425;DHT22;8830;50.978;5.058;2022-07-12T15:31:38;32.10;92.60
17425;DHT22;8830;50.978;5.058;2022-07-12T15:34:05;31.70;92.60
17425;DHT22;8830;50.978;5.058;2022-07-12T15:36:32;31.50;92.80
17425;DHT22;8830;50.978;5.058;2022-07-12T15:38:59;31.50;93.10
17425;DHT22;8830;50.978;5.058;2022-07-12T15:41:26;31.60;93.20
17425;DHT22;8830;50.978;5.058;2022-07-12T15:43:55;31.60;93.20
17425;DHT22;8830;50.978;5.058;2022-07-12T15:46:22;31.80;92.00
17425;DHT22;8830;50.978;5.058;2022-07-12T15:48:49;32.00;92.80
17425;DHT22;8830;50.978;5.058;2022-07-12T15:51:16;32.10;92.50
17425;DHT22;8830;50.978;5.058;2022-07-12T15:53:43;31.90;92.30
17425;DHT22;8830;50.978;5.058;2022-07-12T15:56:10;31.60;92.50
17425;DHT22;8830;50.978;5.058;2022-07-12T15:58:38;31.50;92.70
17425;DHT22;8830;50.978;5.058;2022-07-12T16:01:07;31.40;93.40
17425;DHT22;8830;50.978;5.058;2022-07-12T16:03:34;31.40;93.70